Time;durP1;ratioP1;P1;durP2;ratioP2;P2;SDS_P1;SDS_P2;PMS_P1;PMS_P2;Temp;Humidity;BMP_temperature;BMP_pressure;BME280_temperature;BME280_humidity;BME280_pressure;Samples;Min_cycle;Max_cycle;Signal;HPM_P1;HPM_P2
2023/12/25 00:01:51;;;;;;;283.02;133.27;;;6.70;99.90;;;;;;4996603;28;20446;-55
2023/12/25 00:04:16;;;;;;;272.88;127.95;;;6.70;99.90;;;;;;4996459;28;20034;-55
2023/12/25 00:06:42;;;;;;;256.55;123.20;;;6.80;99.90;;;;;;4996315;28;20033;-55
2023/12/25 00:09:08;;;;;;;263.13;128.98;;;6.80;99.90;;;;;;4996300;28;20113;-55
2023/12/25 00:11:34;;;;;;;269.85;128.18;;;6.90;99.90;;;;;;4996436;28;20034;-55
2023/12/25 00:14:00;;;;;;;306.98;143.35;;;6.80;99.90;;;;;;4996330;28;20038;-55
2023/12/25 00:16:26;;;;;;;309.17;148.57;;;6.90;99.90;;;;;;4996185;28;20471;-55
2023/12/25 00:18:52;;;;;;;317.55;149.80;;;7.00;99.90;;;;;;4996243;28;20084;-55
2023/12/25 00:21:19;;;;;;;320.50;152.13;;;7.00;99.90;;;;;;4996382;28;20105;-56
2023/12/25 00:23:45;;;;;;;332.23;153.13;;;7.10;99.90;;;;;;4996285;28;20049;-56
2023/12/25 00:26:11;;;;;;;296.15;140.95;;;7.10;99.90;;;;;;4996111;28;20038;-55
2023/12/25 00:28:37;;;;;;;281.08;134.85;;;7.20;99.90;;;;;;4996731;28;20057;-55
2023/12/25 00:31:03;;;;;;;287.25;132.55;;;7.20;99.90;;;;;;4994989;28;20030;-55
2023/12/25 00:33:29;;;;;;;281.80;130.63;;;7.20;99.90;;;;;;4996649;28;20304;-55
2023/12/25 00:35:55;;;;;;;279.20;131.73;;;7.10;99.90;;;;;;4994919;28;20502;-56
2023/12/25 00:38:21;;;;;;;275.70;130.68;;;7.20;99.90;;;;;;4995973;28;20072;-55
2023/12/25 00:40:47;;;;;;;284.15;132.68;;;7.20;99.90;;;;;;4994939;28;20030;-55
2023/12/25 00:43:13;;;;;;;261.83;128.05;;;7.30;99.90;;;;;;4994739;28;20080;-55
2023/12/25 00:45:39;;;;;;;260.70;124.72;;;7.40;99.90;;;;;;4996283;28;20487;-55
2023/12/25 00:48:05;;;;;;;219.77;109.32;;;7.40;99.90;;;;;;4996011;28;20037;-55
2023/12/25 00:50:31;;;;;;;227.57;109.72;;;7.40;99.90;;;;;;4994779;28;20030;-56
2023/12/25 00:52:57;;;;;;;214.95;100.32;;;7.30;99.90;;;;;;4996008;28;20022;-55
2023/12/25 00:55:22;;;;;;;225.50;108.30;;;7.30;99.90;;;;;;4994657;28;20045;-56
2023/12/25 00:57:48;;;;;;;262.13;126.05;;;7.30;99.90;;;;;;4994416;28;20041;-55
2023/12/25 01:00:14;;;;;;;270.10;126.00;;;7.30;99.90;;;;;;4994629;28;20498;-56
2023/12/25 01:02:40;;;;;;;262.08;125.45;;;7.30;99.90;;;;;;4995951;28;20194;-55
2023/12/25 01:05:07;;;;;;;291.50;127.05;;;7.30;99.90;;;;;;4995839;28;20106;-55
2023/12/25 01:07:33;;;;;;;273.02;129.13;;;7.30;99.90;;;;;;4995797;28;20491;-55
2023/12/25 01:09:59;;;;;;;283.35;126.60;;;7.10;99.90;;;;;;4995920;28;20298;-55
2023/12/25 01:12:25;;;;;;;258.83;124.70;;;7.10;99.90;;;;;;4995773;28;20670;-55
2023/12/25 01:14:51;;;;;;;249.88;121.53;;;7.20;99.90;;;;;;4994514;28;20118;-55
2023/12/25 01:17:17;;;;;;;260.95;123.85;;;7.20;99.90;;;;;;4994379;28;20050;-56
2023/12/25 01:19:43;;;;;;;264.40;121.28;;;7.30;99.90;;;;;;4994447;28;20035;-56
2023/12/25 01:22:09;;;;;;;267.30;124.05;;;7.30;99.90;;;;;;4997927;28;20161;-55
2023/12/25 01:24:35;;;;;;;262.80;122.47;;;7.30;99.90;;;;;;4999439;28;20026;-55
2023/12/25 01:27:00;;;;;;;257.48;120.63;;;7.30;99.90;;;;;;4999339;28;20038;-55
2023/12/25 01:29:26;;;;;;;242.32;118.82;;;7.30;99.90;;;;;;4998026;28;20034;-55
2023/12/25 01:31:52;;;;;;;255.80;122.22;;;7.30;99.90;;;;;;4998184;28;20031;-55
2023/12/25 01:34:18;;;;;;;237.38;117.40;;;7.30;99.90;;;;;;4997937;28;20038;-55
2023/12/25 01:36:44;;;;;;;256.02;120.35;;;7.20;99.90;;;;;;4999151;28;20034;-55
2023/12/25 01:39:12;;;;;;;232.15;116.22;;;7.20;99.90;;;;;;4997971;28;20051;-55
2023/12/25 01:41:38;;;;;;;249.98;120.10;;;7.20;99.90;;;;;;4997852;28;20461;-55
2023/12/25 01:44:04;;;;;;;246.82;118.88;;;7.20;99.90;;;;;;4999006;28;20045;-55
2023/12/25 01:46:30;;;;;;;248.75;120.65;;;7.20;99.90;;;;;;4997734;28;20042;-55
2023/12/25 01:48:56;;;;;;;246.02;117.50;;;7.20;99.90;;;;;;4997794;28;20092;-55
2023/12/25 01:51:22;;;;;;;241.50;113.47;;;7.20;99.90;;;;;;4997790;28;20058;-55
2023/12/25 01:53:49;;;;;;;227.32;113.18;;;7.10;99.90;;;;;;4999013;28;20026;-55
2023/12/25 01:56:16;;;;;;;233.30;111.00;;;7.10;99.90;;;;;;4997472;28;20047;-55
2023/12/25 01:58:42;;;;;;;233.57;110.85;;;7.00;99.90;;;;;;4997548;28;20042;-56
2023/12/25 02:01:08;;;;;;;232.00;112.05;;;6.80;99.90;;;;;;4997526;28;20465;-55
2023/12/25 02:03:34;;;;;;;221.77;106.50;;;6.60;99.90;;;;;;4997545;28;20037;-55
2023/12/25 02:06:01;;;;;;;212.50;105.13;;;6.50;99.90;;;;;;4998634;28;20026;-55
2023/12/25 02:08:28;;;;;;;209.90;101.78;;;6.50;99.90;;;;;;4998538;28;20044;-55
2023/12/25 02:10:54;;;;;;;213.88;104.45;;;6.50;99.90;;;;;;4997411;28;20042;-55
2023/12/25 02:13:20;;;;;;;210.55;101.80;;;6.50;99.90;;;;;;4997254;28;20041;-55
2023/12/25 02:15:49;;;;;;;207.15;100.70;;;6.30;99.90;;;;;;4998444;28;20032;-55
2023/12/25 02:18:14;;;;;;;212.98;104.18;;;6.40;99.90;;;;;;4997346;28;20038;-55
2023/12/25 02:20:41;;;;;;;209.32;99.18;;;6.50;99.90;;;;;;4997225;28;20033;-55
2023/12/25 02:23:10;;;;;;;216.63;102.47;;;6.50;99.90;;;;;;4997003;28;20496;-55
2023/12/25 02:25:56;;;;;;;220.82;101.70;;;6.50;99.90;;;;;;4997074;28;20030;-55
2023/12/25 02:28:22;;;;;;;208.85;97.20;;;6.40;99.90;;;;;;4983213;28;20034;-55
2023/12/25 02:30:48;;;;;;;185.68;89.85;;;6.30;99.90;;;;;;4998388;28;20170;-55
2023/12/25 02:33:14;;;;;;;188.25;89.13;;;6.20;99.90;;;;;;4996971;28;20066;-55
2023/12/25 02:35:40;;;;;;;180.73;84.75;;;6.20;99.90;;;;;;4998139;28;20504;-55
2023/12/25 02:38:06;;;;;;;173.32;84.00;;;6.30;99.90;;;;;;4996131;28;20077;-55
2023/12/25 02:40:32;;;;;;;202.02;94.88;;;6.20;99.90;;;;;;4996623;28;20027;-56
2023/12/25 02:42:58;;;;;;;181.73;84.53;;;6.30;99.90;;;;;;4997987;28;20525;-55
2023/12/25 02:45:24;;;;;;;174.07;81.57;;;6.20;99.90;;;;;;4996729;28;20030;-57
2023/12/25 02:47:51;;;;;;;378.83;156.13;;;6.10;99.90;;;;;;4997964;28;20041;-55
2023/12/25 02:50:17;;;;;;;263.63;113.60;;;6.10;99.90;;;;;;4997809;28;20026;-55
2023/12/25 02:52:43;;;;;;;188.05;85.43;;;6.00;99.90;;;;;;4996532;28;20042;-55
2023/12/25 02:55:09;;;;;;;235.23;86.53;;;6.00;99.90;;;;;;4997819;28;20113;-55
2023/12/25 02:57:35;;;;;;;187.68;75.32;;;6.00;99.90;;;;;;4996501;28;20030;-55
2023/12/25 03:00:01;;;;;;;167.50;73.90;;;6.00;99.90;;;;;;4996405;28;20077;-55
2023/12/25 03:02:27;;;;;;;161.60;71.78;;;5.90;99.90;;;;;;4996487;28;20023;-55
2023/12/25 03:04:53;;;;;;;150.52;70.32;;;5.90;99.90;;;;;;4996428;28;20547;-56
2023/12/25 03:07:19;;;;;;;153.27;69.10;;;5.80;99.90;;;;;;4996080;28;20081;-55
2023/12/25 03:09:45;;;;;;;151.25;64.63;;;5.60;99.90;;;;;;4996369;28;20076;-55
2023/12/25 03:12:11;;;;;;;146.70;64.18;;;5.60;99.90;;;;;;4997511;28;20034;-55
2023/12/25 03:14:37;;;;;;;173.18;68.68;;;5.50;99.90;;;;;;4997458;28;20030;-55
2023/12/25 03:17:03;;;;;;;174.32;73.60;;;5.50;99.90;;;;;;4995988;28;20030;-55
2023/12/25 03:19:29;;;;;;;183.48;78.68;;;5.40;99.90;;;;;;4997357;28;20041;-55
2023/12/25 03:21:55;;;;;;;175.90;76.90;;;5.40;99.90;;;;;;4997181;28;20046;-56
2023/12/25 03:24:21;;;;;;;180.98;79.95;;;5.40;99.90;;;;;;4995926;28;20067;-55
2023/12/25 03:26:47;;;;;;;176.45;76.47;;;5.40;99.90;;;;;;4997336;28;20046;-55
2023/12/25 03:29:12;;;;;;;174.82;80.55;;;5.50;99.90;;;;;;4995915;28;20026;-55
2023/12/25 03:31:38;;;;;;;165.43;78.13;;;5.50;99.90;;;;;;4995910;28;20034;-55
2023/12/25 03:34:04;;;;;;;159.07;76.32;;;5.50;99.90;;;;;;4997059;28;20038;-55
2023/12/25 03:36:30;;;;;;;175.25;81.22;;;5.60;99.90;;;;;;4995676;28;20050;-55
2023/12/25 03:38:56;;;;;;;153.73;71.70;;;5.70;99.90;;;;;;4996979;28;20061;-55
2023/12/25 03:41:22;;;;;;;139.07;67.00;;;5.70;99.90;;;;;;4996958;28;20109;-55
2023/12/25 03:43:47;;;;;;;161.60;74.78;;;5.60;99.90;;;;;;4996405;28;20026;-55
2023/12/25 03:46:13;;;;;;;169.50;79.85;;;5.60;99.90;;;;;;4995630;28;20080;-55
2023/12/25 03:48:39;;;;;;;197.65;89.22;;;5.70;99.90;;;;;;4996828;28;20037;-55
2023/12/25 03:51:05;;;;;;;207.63;92.05;;;5.80;99.90;;;;;;4996684;28;20038;-55
2023/12/25 03:53:31;;;;;;;153.05;73.85;;;5.90;99.90;;;;;;4996671;28;20042;-55
2023/12/25 03:56:02;;;;;;;189.23;90.85;;;5.90;99.90;;;;;;4996710;28;20109;-55
2023/12/25 03:58:28;;;;;;;171.07;80.35;;;5.80;99.90;;;;;;4995355;28;20554;-55
2023/12/25 04:00:54;;;;;;;165.55;79.03;;;5.80;99.90;;;;;;4995330;28;20074;-55
2023/12/25 04:03:20;;;;;;;222.68;107.85;;;6.00;99.90;;;;;;4996578;28;20058;-55
2023/12/25 04:05:46;;;;;;;228.85;110.38;;;5.90;99.90;;;;;;4995326;28;20337;-56
2023/12/25 04:08:12;;;;;;;245.80;117.07;;;6.00;99.90;;;;;;4995201;28;20038;-55
2023/12/25 04:10:37;;;;;;;230.30;110.85;;;6.00;99.90;;;;;;4995143;28;20034;-55
2023/12/25 04:13:03;;;;;;;224.82;105.78;;;5.90;99.90;;;;;;4996499;28;20088;-55
2023/12/25 04:15:29;;;;;;;197.55;93.72;;;5.90;99.90;;;;;;4995160;28;20038;-55
2023/12/25 04:17:56;;;;;;;149.30;70.28;;;5.90;99.90;;;;;;4994223;28;20104;-55
2023/12/25 04:20:22;;;;;;;141.82;67.32;;;5.90;99.90;;;;;;4994252;28;20026;-55
2023/12/25 04:22:49;;;;;;;169.77;73.93;;;6.00;99.90;;;;;;4994049;28;20038;-55
2023/12/25 04:25:14;;;;;;;177.15;78.25;;;5.90;99.90;;;;;;4995412;28;20579;-55
2023/12/25 04:27:40;;;;;;;167.18;76.53;;;5.90;99.90;;;;;;4995426;28;20069;-55
2023/12/25 04:30:07;;;;;;;153.20;72.75;;;5.80;99.90;;;;;;4994170;28;20026;-55
2023/12/25 04:32:33;;;;;;;135.70;61.60;;;5.70;99.90;;;;;;4994168;28;20026;-55
2023/12/25 04:34:58;;;;;;;132.75;62.33;;;5.70;99.90;;;;;;4994178;28;20498;-55
2023/12/25 04:37:24;;;;;;;138.00;63.67;;;5.70;99.90;;;;;;4993847;28;20045;-55
2023/12/25 04:39:51;;;;;;;141.18;67.45;;;5.60;99.90;;;;;;4994044;28;20030;-55
2023/12/25 04:42:17;;;;;;;134.30;65.35;;;5.60;99.90;;;;;;4994261;28;20031;-55
2023/12/25 04:44:43;;;;;;;137.15;66.13;;;5.60;99.90;;;;;;4993830;28;20088;-56
2023/12/25 04:47:09;;;;;;;110.68;55.17;;;5.70;99.90;;;;;;4995333;28;20098;-56
2023/12/25 04:49:36;;;;;;;108.35;51.53;;;5.70;99.90;;;;;;4993924;28;20026;-55
2023/12/25 04:52:03;;;;;;;125.43;56.95;;;5.60;99.90;;;;;;4995288;28;20109;-55
2023/12/25 04:54:29;;;;;;;109.45;51.58;;;5.60;99.90;;;;;;4994816;28;20035;-55
2023/12/25 04:56:57;;;;;;;129.65;55.28;;;5.60;99.90;;;;;;4997054;28;20100;-55
2023/12/25 04:59:23;;;;;;;101.35;50.35;;;5.50;99.90;;;;;;4998589;28;20252;-56
2023/12/25 05:01:49;;;;;;;114.53;51.47;;;5.50;99.90;;;;;;4997349;28;20110;-55
2023/12/25 05:04:16;;;;;;;117.55;53.90;;;5.50;99.90;;;;;;4998768;28;20026;-56
2023/12/25 05:06:42;;;;;;;121.10;56.67;;;5.50;99.90;;;;;;4998439;28;20057;-55
2023/12/25 05:09:08;;;;;;;133.20;57.88;;;5.40;99.90;;;;;;4997205;28;20037;-55
2023/12/25 05:11:34;;;;;;;113.53;57.28;;;5.40;99.90;;;;;;4997252;28;20042;-55
2023/12/25 05:14:00;;;;;;;114.68;57.40;;;5.50;99.90;;;;;;4998375;28;20030;-55
2023/12/25 05:16:27;;;;;;;107.55;53.97;;;5.50;99.90;;;;;;4957526;28;1186811;-55
2023/12/25 05:18:53;;;;;;;120.03;56.70;;;5.50;99.90;;;;;;4999477;28;20046;-55
2023/12/25 05:21:19;;;;;;;114.82;53.67;;;5.50;99.90;;;;;;4998217;28;20125;-55
2023/12/25 05:23:44;;;;;;;116.03;54.33;;;5.40;99.90;;;;;;4999462;28;20124;-55
2023/12/25 05:26:10;;;;;;;111.68;53.55;;;5.30;99.90;;;;;;4999546;28;20031;-55
2023/12/25 05:28:36;;;;;;;110.30;51.95;;;5.20;99.90;;;;;;4999460;28;20081;-55
2023/12/25 05:31:02;;;;;;;112.53;54.28;;;5.30;99.90;;;;;;4999390;28;20480;-55
2023/12/25 05:33:28;;;;;;;138.48;68.85;;;5.30;99.90;;;;;;4999213;28;20084;-55
2023/12/25 05:35:54;;;;;;;113.40;57.85;;;5.20;99.90;;;;;;4999303;28;20031;-56
2023/12/25 05:38:19;;;;;;;87.25;43.95;;;5.20;99.90;;;;;;4998971;28;20045;-55
2023/12/25 05:40:45;;;;;;;105.68;50.35;;;5.20;99.90;;;;;;4999159;28;20035;-55
2023/12/25 05:43:11;;;;;;;105.75;48.40;;;5.20;99.90;;;;;;4999221;28;20046;-55
2023/12/25 05:45:40;;;;;;;115.45;53.60;;;5.20;99.90;;;;;;4999082;28;20026;-55
2023/12/25 05:48:06;;;;;;;100.97;49.17;;;5.20;99.90;;;;;;4998980;28;20034;-55
2023/12/25 05:50:32;;;;;;;107.85;50.80;;;5.20;99.90;;;;;;4999004;28;20034;-55
2023/12/25 05:52:58;;;;;;;106.13;50.22;;;5.20;99.90;;;;;;4998647;28;20041;-55
2023/12/25 05:55:25;;;;;;;97.55;48.80;;;5.30;99.90;;;;;;4998907;28;20041;-56
2023/12/25 05:57:51;;;;;;;96.55;46.85;;;5.30;99.90;;;;;;4999054;28;20034;-55
2023/12/25 06:00:17;;;;;;;114.13;53.38;;;5.30;99.90;;;;;;4998769;28;20041;-55
2023/12/25 06:02:43;;;;;;;112.45;54.88;;;5.30;99.90;;;;;;4999017;28;20042;-55
2023/12/25 06:05:09;;;;;;;124.72;61.85;;;5.20;99.90;;;;;;4998696;28;20037;-55
2023/12/25 06:07:34;;;;;;;139.82;67.05;;;5.20;99.90;;;;;;4998034;28;20034;-56
2023/12/25 06:10:00;;;;;;;138.07;67.10;;;5.20;99.90;;;;;;5001118;28;20072;-55
2023/12/25 06:12:26;;;;;;;142.40;67.03;;;5.20;99.90;;;;;;5017698;28;20026;-56
2023/12/25 06:14:52;;;;;;;160.48;71.78;;;5.20;99.90;;;;;;5018052;28;20030;-56
2023/12/25 06:17:18;;;;;;;154.32;71.82;;;5.20;99.90;;;;;;5018457;28;20057;-55
2023/12/25 06:19:44;;;;;;;153.50;75.97;;;5.10;99.90;;;;;;5015172;28;20114;-55
2023/12/25 06:22:11;;;;;;;146.27;72.38;;;5.20;99.90;;;;;;4988512;28;20053;-55
2023/12/25 06:24:37;;;;;;;137.13;65.50;;;5.20;99.90;;;;;;4990944;28;20587;-55
2023/12/25 06:27:03;;;;;;;128.30;58.13;;;5.30;99.90;;;;;;4998448;28;20073;-56
2023/12/25 06:29:29;;;;;;;137.10;59.75;;;5.20;99.90;;;;;;4998173;28;20494;-55
2023/12/25 06:31:54;;;;;;;132.98;62.55;;;5.10;99.90;;;;;;4985921;28;20126;-56
2023/12/25 06:34:20;;;;;;;138.40;66.53;;;5.10;99.90;;;;;;4998500;28;20073;-55
2023/12/25 06:36:46;;;;;;;154.32;74.43;;;5.20;99.90;;;;;;4992142;28;20073;-55
2023/12/25 06:39:12;;;;;;;145.00;68.80;;;5.10;99.90;;;;;;4992207;28;20066;-56
2023/12/25 06:41:38;;;;;;;135.15;65.35;;;5.20;99.90;;;;;;4989530;28;20034;-55
2023/12/25 06:44:04;;;;;;;133.15;64.28;;;5.10;99.90;;;;;;4997868;28;20026;-55
2023/12/25 06:46:29;;;;;;;133.15;67.50;;;5.10;99.90;;;;;;4997854;28;20045;-55
2023/12/25 06:48:55;;;;;;;140.95;68.05;;;5.00;99.90;;;;;;4991422;28;20034;-55
2023/12/25 06:51:21;;;;;;;154.98;70.57;;;5.00;99.90;;;;;;4982448;28;20138;-55
2023/12/25 06:53:47;;;;;;;152.52;71.55;;;4.90;99.90;;;;;;4987001;28;20046;-55
2023/12/25 06:56:13;;;;;;;196.30;91.85;;;5.00;99.90;;;;;;4983938;28;20049;-55
2023/12/25 06:58:39;;;;;;;148.13;70.03;;;5.10;99.90;;;;;;4983185;28;20034;-55
2023/12/25 07:01:06;;;;;;;153.45;72.82;;;5.10;99.90;;;;;;4997945;28;20026;-55
2023/12/25 07:03:33;;;;;;;155.18;75.40;;;5.20;99.90;;;;;;4995592;28;20022;-55
2023/12/25 07:05:59;;;;;;;156.98;76.05;;;5.10;99.90;;;;;;4994650;28;20030;-56
2023/12/25 07:08:27;;;;;;;159.13;77.40;;;5.20;99.90;;;;;;4988122;28;20026;-55
2023/12/25 07:10:54;;;;;;;163.73;79.47;;;5.40;99.90;;;;;;4987412;28;20537;-55
2023/12/25 07:13:20;;;;;;;182.18;85.47;;;5.50;99.90;;;;;;4986581;28;20436;-55
2023/12/25 07:15:46;;;;;;;187.55;87.63;;;5.60;99.90;;;;;;4981074;28;20111;-55
2023/12/25 07:18:12;;;;;;;177.57;84.97;;;5.70;99.90;;;;;;4979922;28;20133;-55
2023/12/25 07:20:38;;;;;;;211.07;96.63;;;5.90;99.90;;;;;;4995963;28;20066;-55
2023/12/25 07:23:03;;;;;;;212.55;102.22;;;6.10;99.90;;;;;;4997450;28;20117;-56
2023/12/25 07:25:29;;;;;;;218.88;103.13;;;6.40;99.90;;;;;;4997445;28;20019;-56
2023/12/25 07:27:55;;;;;;;187.30;91.35;;;7.10;99.90;;;;;;4992649;28;20494;-56
2023/12/25 07:30:21;;;;;;;191.52;87.32;;;8.00;99.90;;;;;;4990627;28;20022;-56
2023/12/25 07:32:47;;;;;;;219.43;92.85;;;9.60;99.90;;;;;;4995216;28;20543;-56
2023/12/25 07:35:13;;;;;;;210.27;101.60;;;11.10;99.60;;;;;;4994982;28;20022;-56
2023/12/25 07:37:39;;;;;;;223.38;106.60;;;12.30;96.20;;;;;;4995322;28;20031;-56
2023/12/25 07:40:05;;;;;;;242.38;115.65;;;13.30;91.50;;;;;;4995665;28;20066;-56
2023/12/25 07:42:31;;;;;;;218.93;108.00;;;14.70;84.50;;;;;;4995739;28;20021;-57
2023/12/25 07:44:57;;;;;;;237.93;107.22;;;15.10;77.90;;;;;;4996214;28;20023;-56
2023/12/25 07:47:23;;;;;;;194.82;92.25;;;15.80;71.80;;;;;;4996695;28;20113;-57
2023/12/25 07:49:50;;;;;;;179.32;88.25;;;16.20;66.90;;;;;;4996514;28;20053;-57
2023/12/25 07:52:16;;;;;;;198.55;87.38;;;16.90;62.80;;;;;;4996211;28;20081;-57
2023/12/25 07:54:42;;;;;;;204.35;95.65;;;17.40;58.60;;;;;;4996473;28;20030;-57
2023/12/25 07:57:07;;;;;;;213.65;100.68;;;16.60;57.60;;;;;;4996508;28;20042;-57
2023/12/25 07:59:33;;;;;;;206.65;98.40;;;16.70;57.50;;;;;;4996260;28;20049;-57
2023/12/25 08:01:59;;;;;;;224.85;103.13;;;17.70;55.20;;;;;;4994487;28;20026;-57
2023/12/25 08:04:25;;;;;;;212.25;105.68;;;18.40;52.00;;;;;;4987921;28;20494;-57
2023/12/25 08:06:51;;;;;;;199.50;98.65;;;18.30;51.70;;;;;;4996088;28;20034;-57
2023/12/25 08:09:16;;;;;;;196.40;98.32;;;18.40;49.60;;;;;;4996218;28;20078;-57
2023/12/25 08:11:42;;;;;;;188.20;97.50;;;18.80;47.90;;;;;;4996634;28;20472;-57
2023/12/25 08:14:08;;;;;;;176.13;92.05;;;18.80;48.00;;;;;;4992749;28;20065;-57
2023/12/25 08:16:35;;;;;;;193.05;93.28;;;20.10;44.60;;;;;;4992374;28;20667;-57
2023/12/25 08:19:01;;;;;;;176.10;87.65;;;20.80;41.70;;;;;;4987451;28;20042;-57
2023/12/25 08:21:27;;;;;;;207.07;90.70;;;20.10;42.70;;;;;;4989442;28;20109;-57
2023/12/25 08:23:52;;;;;;;177.35;85.10;;;20.80;41.30;;;;;;4984031;28;20027;-57
2023/12/25 08:26:18;;;;;;;166.48;83.38;;;21.40;37.40;;;;;;4976968;28;20022;-57
2023/12/25 08:28:46;;;;;;;164.30;90.55;;;21.90;35.60;;;;;;4975019;28;20054;-57
2023/12/25 08:31:12;;;;;;;173.40;92.72;;;22.20;35.00;;;;;;4976348;28;20034;-57
2023/12/25 08:33:37;;;;;;;173.50;85.15;;;23.40;32.60;;;;;;4976508;28;20026;-57
2023/12/25 08:36:04;;;;;;;154.02;77.35;;;22.50;32.90;;;;;;4976239;28;20034;-57
2023/12/25 08:38:29;;;;;;;132.73;71.63;;;22.00;32.70;;;;;;4988849;28;20457;-57
2023/12/25 08:40:57;;;;;;;163.77;74.50;;;21.80;33.80;;;;;;4996801;28;20032;-57
2023/12/25 08:43:22;;;;;;;143.15;72.95;;;21.70;34.20;;;;;;4995803;28;20494;-57
2023/12/25 08:45:48;;;;;;;142.63;76.68;;;22.10;31.60;;;;;;4995539;28;20101;-57
2023/12/25 08:48:15;;;;;;;162.05;87.93;;;21.90;33.40;;;;;;4989334;28;20122;-58
2023/12/25 08:50:40;;;;;;;168.07;91.63;;;22.30;32.20;;;;;;4987139;28;20030;-57
2023/12/25 08:53:08;;;;;;;167.43;92.82;;;22.00;34.10;;;;;;4993532;28;20026;-57
2023/12/25 08:55:34;;;;;;;159.85;81.50;;;21.90;32.20;;;;;;4992773;28;20066;-57
2023/12/25 08:57:59;;;;;;;151.43;78.22;;;21.80;31.40;;;;;;4996026;28;20034;-57
2023/12/25 09:00:25;;;;;;;138.35;72.20;;;22.60;30.60;;;;;;4995620;28;20042;-58
2023/12/25 09:02:51;;;;;;;119.97;63.78;;;21.70;30.60;;;;;;4994309;28;20097;-58
2023/12/25 09:05:17;;;;;;;137.48;64.18;;;22.40;30.70;;;;;;4992706;28;20057;-58
2023/12/25 09:07:43;;;;;;;152.30;73.28;;;23.10;29.90;;;;;;4992595;28;20106;-57
2023/12/25 09:10:09;;;;;;;159.98;81.45;;;22.50;29.30;;;;;;4980430;28;20066;-57
2023/12/25 09:12:35;;;;;;;150.20;75.43;;;22.10;29.70;;;;;;4990953;28;20038;-57
2023/12/25 09:15:01;;;;;;;137.43;71.53;;;21.70;30.90;;;;;;4993597;28;20046;-58
2023/12/25 09:17:27;;;;;;;138.55;66.38;;;22.60;29.40;;;;;;4995878;28;20093;-57
2023/12/25 09:19:52;;;;;;;155.82;66.65;;;22.60;28.60;;;;;;5014673;28;20038;-57
2023/12/25 09:22:21;;;;;;;128.27;62.03;;;22.10;30.00;;;;;;5012465;28;20030;-57
2023/12/25 09:24:47;;;;;;;129.52;61.42;;;22.90;28.20;;;;;;4989160;28;20026;-58
2023/12/25 09:27:12;;;;;;;129.50;63.03;;;21.60;29.80;;;;;;4995336;28;20072;-57
2023/12/25 09:29:38;;;;;;;136.43;63.17;;;22.70;29.60;;;;;;4994953;28;20464;-57
2023/12/25 09:32:04;;;;;;;139.90;66.82;;;22.60;29.80;;;;;;4993158;28;20058;-57
2023/12/25 09:34:31;;;;;;;119.30;61.63;;;23.00;28.80;;;;;;4995384;28;20023;-58
2023/12/25 09:36:58;;;;;;;128.60;59.50;;;22.90;29.20;;;;;;4995196;28;20034;-58
2023/12/25 09:39:24;;;;;;;124.82;61.92;;;22.60;28.20;;;;;;4993398;28;20114;-57
2023/12/25 09:41:50;;;;;;;102.68;57.78;;;23.00;28.70;;;;;;4983465;28;20085;-58
2023/12/25 09:44:16;;;;;;;114.60;59.40;;;23.50;28.40;;;;;;4992169;28;20033;-58
2023/12/25 09:46:44;;;;;;;117.53;57.78;;;23.60;28.30;;;;;;4997371;28;20030;-58
2023/12/25 09:49:10;;;;;;;106.60;55.97;;;24.30;27.00;;;;;;4998671;28;20066;-57
2023/12/25 09:51:36;;;;;;;120.63;62.20;;;24.20;27.10;;;;;;4998404;28;20431;-58
2023/12/25 09:54:03;;;;;;;108.82;59.50;;;24.90;25.90;;;;;;4997790;28;20035;-58
2023/12/25 09:56:34;;;;;;;100.40;56.63;;;25.30;25.10;;;;;;4996786;28;20022;-58
2023/12/25 09:59:00;;;;;;;98.10;57.10;;;25.70;24.30;;;;;;4996741;28;20051;-58
2023/12/25 10:01:26;;;;;;;110.95;52.78;;;25.80;23.30;;;;;;4997920;28;20247;-58
2023/12/25 10:03:52;;;;;;;89.43;39.45;;;25.20;23.10;;;;;;4997918;28;20345;-58
2023/12/25 10:06:21;;;;;;;55.90;28.27;;;25.50;21.80;;;;;;4998571;28;20106;-58
2023/12/25 10:08:47;;;;;;;58.63;29.35;;;25.20;21.80;;;;;;4998107;28;20034;-58
2023/12/25 10:11:14;;;;;;;65.88;30.23;;;26.10;21.30;;;;;;4997495;28;20038;-58
2023/12/25 10:13:43;;;;;;;57.17;24.58;;;26.60;22.20;;;;;;4998295;28;20501;-58
2023/12/25 10:16:09;;;;;;;47.97;21.30;;;27.20;21.70;;;;;;4991960;28;20473;-58
2023/12/25 10:18:38;;;;;;;48.38;19.48;;;26.80;19.50;;;;;;4991507;28;20038;-58
2023/12/25 10:21:09;;;;;;;38.78;17.75;;;27.40;18.30;;;;;;4994716;28;20467;-58
2023/12/25 10:23:36;;;;;;;32.72;14.45;;;27.50;17.80;;;;;;4990849;28;20061;-58
2023/12/25 10:26:04;;;;;;;63.67;17.35;;;28.30;16.30;;;;;;4978952;28;20449;-58
2023/12/25 10:28:32;;;;;;;30.27;11.25;;;27.50;16.00;;;;;;4991822;28;20089;-58
2023/12/25 10:30:59;;;;;;;34.50;12.55;;;27.30;14.90;;;;;;4996270;28;20113;-58
2023/12/25 10:33:26;;;;;;;28.92;12.25;;;27.70;18.00;;;;;;4998088;28;20060;-58
2023/12/25 10:36:09;;;;;;;32.90;11.30;;;27.30;16.70;;;;;;4989780;28;20092;-58
2023/12/25 10:38:42;;;;;;;37.20;11.48;;;27.40;15.90;;;;;;4979403;28;20337;-58
2023/12/25 10:41:31;;;;;;;26.45;12.35;;;26.50;16.00;;;;;;4978531;28;20409;-58
2023/12/25 10:44:02;;;;;;;42.38;13.52;;;26.00;16.90;;;;;;4978553;28;20023;-58
2023/12/25 10:46:36;;;;;;;37.70;15.38;;;26.00;17.40;;;;;;4977959;28;20027;-58
2023/12/25 10:49:04;;;;;;;33.45;13.70;;;26.80;16.80;;;;;;4993768;28;20121;-58
2023/12/25 10:51:34;;;;;;;29.00;14.40;;;26.40;17.20;;;;;;4997685;28;20033;-58
2023/12/25 10:54:08;;;;;;;46.63;15.88;;;25.30;18.00;;;;;;4996175;28;20109;-58
2023/12/25 10:56:36;;;;;;;41.92;14.50;;;25.70;17.50;;;;;;4997829;28;20569;-58
2023/12/25 10:59:27;;;;;;;44.45;15.80;;;27.20;17.30;;;;;;4997604;28;20027;-58
2023/12/25 11:01:55;;;;;;;27.63;14.45;;;26.10;17.90;;;;;;4995929;28;20082;-58
2023/12/25 11:04:23;;;;;;;32.95;16.10;;;25.50;17.70;;;;;;4997006;28;20460;-58
2023/12/25 11:06:49;;;;;;;32.92;20.20;;;25.50;18.00;;;;;;4997215;28;20034;-58
2023/12/25 11:09:20;;;;;;;50.35;20.45;;;25.70;18.80;;;;;;4997563;28;20030;-58
2023/12/25 11:11:46;;;;;;;38.88;17.90;;;26.10;18.00;;;;;;4997713;28;20042;-58
2023/12/25 11:14:12;;;;;;;51.35;18.52;;;26.40;17.20;;;;;;4990048;28;20483;-58
2023/12/25 11:16:38;;;;;;;40.35;16.88;;;26.40;17.20;;;;;;4996316;28;20372;-58
2023/12/25 11:19:05;;;;;;;43.60;17.23;;;26.80;17.10;;;;;;4990833;28;20030;-58
2023/12/25 11:21:33;;;;;;;43.15;18.88;;;27.40;16.70;;;;;;4985448;28;20040;-58
2023/12/25 11:24:02;;;;;;;66.15;19.38;;;27.70;17.00;;;;;;4991896;28;20101;-58
2023/12/25 11:26:29;;;;;;;48.75;18.85;;;27.90;17.20;;;;;;4982633;28;20034;-58
2023/12/25 11:29:03;;;;;;;51.53;17.85;;;28.10;17.10;;;;;;4996803;28;20030;-58
2023/12/25 11:31:41;;;;;;;60.65;20.10;;;28.30;16.30;;;;;;4996569;28;20486;-58
2023/12/25 11:34:20;;;;;;;41.15;17.83;;;28.10;15.50;;;;;;4990983;28;20054;-58
2023/12/25 11:36:50;;;;;;;36.72;14.48;;;28.40;16.60;;;;;;4996432;28;20026;-58
2023/12/25 11:39:16;;;;;;;40.53;16.13;;;28.60;15.10;;;;;;4996426;28;20030;-58
2023/12/25 11:41:45;;;;;;;39.05;16.77;;;29.00;15.20;;;;;;4996856;28;20365;-58
2023/12/25 11:44:17;;;;;;;41.13;18.90;;;29.30;14.40;;;;;;4994725;28;20480;-58
2023/12/25 11:46:47;;;;;;;60.10;19.08;;;29.30;14.20;;;;;;4996500;28;20033;-58
2023/12/25 11:49:14;;;;;;;43.10;16.13;;;29.50;14.50;;;;;;4996572;28;20041;-58
2023/12/25 11:51:47;;;;;;;71.15;20.55;;;29.60;13.60;;;;;;4996348;28;20034;-58
2023/12/25 11:54:13;;;;;;;40.30;16.00;;;29.50;13.70;;;;;;4996935;28;20027;-58
2023/12/25 11:56:39;;;;;;;25.63;13.52;;;29.80;14.00;;;;;;4996814;28;20037;-58
2023/12/25 11:59:05;;;;;;;42.22;14.10;;;29.60;13.90;;;;;;4996563;28;20034;-58
2023/12/25 12:01:31;;;;;;;42.17;14.25;;;30.00;13.10;;;;;;5014250;28;20038;-58
2023/12/25 12:03:57;;;;;;;30.02;13.63;;;29.70;13.70;;;;;;5015606;28;20112;-58
2023/12/25 12:06:23;;;;;;;46.42;15.32;;;29.80;12.50;;;;;;5015328;28;20123;-58
2023/12/25 12:08:49;;;;;;;29.58;12.43;;;29.70;13.30;;;;;;5016275;28;20030;-58
2023/12/25 12:11:15;;;;;;;43.00;13.30;;;29.20;13.10;;;;;;5015637;28;20243;-58
2023/12/25 12:13:42;;;;;;;36.75;13.80;;;29.40;13.40;;;;;;5015881;28;20038;-58
2023/12/25 12:16:08;;;;;;;26.85;12.15;;;29.00;14.20;;;;;;5015851;28;20125;-58
2023/12/25 12:18:35;;;;;;;38.00;14.07;;;28.70;12.90;;;;;;5011252;28;20082;-58
2023/12/25 12:21:01;;;;;;;28.23;11.10;;;28.90;13.40;;;;;;4995979;28;20113;-58